Carolina, PR (00979)

8:48 AM AST on February 08, 2016 (GMT -0400)
Manejo de Emergencias Carolina | | Change Station
CLOSE
Current Station
Personal Weather Station
Location: Carolina, PR
Elevation: 40 ft
Nearby Weather Stations

Elev 40 ft 18.38 °N, 65.97 °W | Updated 2 seconds ago

Partly Cloudy
Partly Cloudy
74.4 °F
Feels Like 73 °F
N
0.0
Wind Variable Wind from North
Gusts 0.0 mph

Today
High -- | Low -- °F
--% Chance of Precip.
Yesterday
High -- | Low -- °F
Precip. -- in
Pressure 30.04 in
Visibility 9.0 miles
Clouds Few 2800 ft
Heat Index 73 °F
Dew Point 72 °F
Humidity 91%
Rainfall Not available.
Snow Depth Not available.
6:55 AM 6:21 PM
Waning Crescent, 0% visible
METAR TJSJ 081156Z 00000KT 9SM FEW028 23/22 A3004 RMK AO2 SLP172 HZ ALQDS 70017 T02280217 10239 20228 51012
Pressure 30.04 in
Visibility 9.0 miles
Clouds Few 2800 ft
Heat Index 73 °F
Dew Point 72 °F
Humidity 91%
Rainfall Not available.
Snow Depth Not available.
6:55 AM 6:21 PM
Waning Crescent, 0% visible
METAR TJSJ 081156Z 00000KT 9SM FEW028 23/22 A3004 RMK AO2 SLP172 HZ ALQDS 70017 T02280217 10239 20228 51012

10-Day Weather Forecast

Almanac

Astronomy

Feb. 08, 2016 Rise Set
Actual Time
Civil Twilight
Nautical Twilight
Astronomical Twilight
Moon
Length of Visible Light
Length of Day
Tomorrow will be .
, % of the Moon is Illuminated

Today's Extremes

State Highs State Lows

Community

WunderPhotos

Upload Photos

1,891,428 photos uploaded!

WunderBlog® & News

Nearby

Air Quality

  Air Quality AQ Index Pollutant
Not available.

Snow Depth

Station Depth Elevation

Earthquake Activity

City Distance Mag. Time & Date
Minimum magnitude displayed is 2.5.

Coastal Water Temperatures

Place Temperature

Stations

Nearby Weather Stations

Station Location Temp. Windchill Dew Point Humidity Wind Precip. Elev Updated Type
                   

Watches & Warnings

There are currently no watches in effect.